createdAt,value
2019-04-21T00:01:00.452Z,14.13
2019-04-21T00:01:57.470Z,14.15
2019-04-21T00:03:01.386Z,14.16
2019-04-21T00:04:07.482Z,14.19
2019-04-21T00:05:16.313Z,14.15
2019-04-21T00:06:18.383Z,14.13
2019-04-21T00:07:14.472Z,14.23
2019-04-21T00:08:27.122Z,14.13
2019-04-21T00:09:21.038Z,14.16
2019-04-21T00:10:18.882Z,14.16
2019-04-21T00:11:18.431Z,14.15
2019-04-21T00:12:15.469Z,14.06
2019-04-21T00:13:14.862Z,14.05
2019-04-21T00:14:11.310Z,14.05
2019-04-21T00:15:07.265Z,14.03
2019-04-21T00:16:02.474Z,14.03
2019-04-21T00:17:05.343Z,14.01
2019-04-21T00:18:00.994Z,14.06
2019-04-21T00:19:02.992Z,13.97
2019-04-21T00:20:09.074Z,13.99
2019-04-21T00:20:58.592Z,13.99
2019-04-21T00:22:08.563Z,13.94
2019-04-21T00:23:13.019Z,14.01
2019-04-21T00:24:12.117Z,13.95
2019-04-21T00:25:11.859Z,13.93
2019-04-21T00:26:09.045Z,14.03
2019-04-21T00:27:10.918Z,13.94
2019-04-21T00:28:16.893Z,13.99
2019-04-21T00:29:16.799Z,14.01
2019-04-21T00:30:15.738Z,13.88
2019-04-21T00:31:12.633Z,13.99
2019-04-21T00:32:10.453Z,13.97
2019-04-21T00:33:08.167Z,13.94
2019-04-21T00:33:56.810Z,13.87
2019-04-21T00:35:05.625Z,13.86
2019-04-21T00:36:06.886Z,13.76
2019-04-21T00:37:09.439Z,13.76
2019-04-21T00:38:22.762Z,13.78
2019-04-21T00:39:28.885Z,13.76
2019-04-21T00:40:17.937Z,13.79
2019-04-21T00:41:13.739Z,13.70
2019-04-21T00:42:14.374Z,13.70
2019-04-21T00:43:14.715Z,13.62
2019-04-21T00:44:08.658Z,13.66
2019-04-21T00:45:11.919Z,13.62
2019-04-21T00:46:06.736Z,13.60
2019-04-21T00:47:14.084Z,13.63
2019-04-21T00:48:16.969Z,13.51
2019-04-21T00:49:17.668Z,13.62
2019-04-21T00:50:18.057Z,13.48
2019-04-21T00:51:33.352Z,13.51
2019-04-21T00:52:29.097Z,13.47
2019-04-21T00:53:23.115Z,13.47
2019-04-21T00:54:25.009Z,13.48
2019-04-21T00:55:27.668Z,13.39
2019-04-21T00:56:22.002Z,13.45
2019-04-21T00:57:29.362Z,13.44
2019-04-21T00:58:26.866Z,13.37
2019-04-21T00:59:19.263Z,13.37
2019-04-21T01:00:22.325Z,13.21
2019-04-21T01:01:15.035Z,13.28
2019-04-21T01:02:19.575Z,13.29
2019-04-21T01:03:24.762Z,13.27
2019-04-21T01:04:18.222Z,13.27
2019-04-21T01:05:22.532Z,13.20
2019-04-21T01:06:22.352Z,13.19
2019-04-21T01:07:21.982Z,13.24
2019-04-21T01:08:19.985Z,13.31
2019-04-21T01:09:16.116Z,13.24
2019-04-21T01:10:09.613Z,13.27
2019-04-21T01:11:17.852Z,13.28
2019-04-21T01:12:19.095Z,13.24
2019-04-21T01:13:23.621Z,13.19
2019-04-21T01:14:15.103Z,13.19
2019-04-21T01:15:26.191Z,13.20
2019-04-21T01:16:21.021Z,13.14
2019-04-21T01:17:25.801Z,13.14
2019-04-21T01:18:21.191Z,13.09
2019-04-21T01:19:16.785Z,13.07
2019-04-21T01:20:12.966Z,13.02
2019-04-21T01:20:57.903Z,12.95
2019-04-21T01:21:57.930Z,13.02
2019-04-21T01:22:57.938Z,12.99
2019-04-21T01:24:07.824Z,12.99
2019-04-21T01:25:09.079Z,12.98
2019-04-21T01:26:13.366Z,12.94
2019-04-21T01:27:06.487Z,12.94
2019-04-21T01:28:16.664Z,12.99
2019-04-21T01:29:12.115Z,12.95
2019-04-21T01:30:17.652Z,12.98
2019-04-21T01:31:17.549Z,12.92
2019-04-21T01:32:35.942Z,12.94
2019-04-21T01:33:24.863Z,12.92
2019-04-21T01:34:20.538Z,12.86
2019-04-21T01:35:17.834Z,12.84
2019-04-21T01:36:16.868Z,12.71
2019-04-21T01:37:14.120Z,12.66
2019-04-21T01:38:21.719Z,12.78
2019-04-21T01:39:19.620Z,12.71
2019-04-21T01:40:22.974Z,12.78
2019-04-21T01:41:21.767Z,12.69
2019-04-21T01:42:18.866Z,12.66
2019-04-21T01:43:18.624Z,12.65
2019-04-21T01:44:25.545Z,12.59
2019-04-21T01:46:15.406Z,12.56
2019-04-21T01:47:11.728Z,12.62
2019-04-21T01:48:15.941Z,12.56
2019-04-21T01:49:11.507Z,12.65
2019-04-21T01:50:09.913Z,12.59
2019-04-21T01:51:15.759Z,12.63
2019-04-21T01:52:24.552Z,12.58
2019-04-21T01:53:24.816Z,12.51
2019-04-21T01:54:22.224Z,12.53
2019-04-21T01:55:18.321Z,12.48
2019-04-21T01:56:17.339Z,12.47
2019-04-21T01:57:17.710Z,12.52
2019-04-21T01:58:11.752Z,12.52
2019-04-21T01:59:07.346Z,12.52
2019-04-21T02:00:12.501Z,12.48
2019-04-21T02:02:24.227Z,12.48
2019-04-21T02:03:43.376Z,12.43
2019-04-21T02:04:34.150Z,12.45
2019-04-21T02:05:30.048Z,12.44
2019-04-21T02:06:21.184Z,12.48
2019-04-21T02:07:22.736Z,12.48
2019-04-21T02:08:21.760Z,12.44
2019-04-21T02:09:23.294Z,12.48
2019-04-21T02:10:32.139Z,12.43
2019-04-21T02:11:28.112Z,12.45
2019-04-21T02:12:27.902Z,12.38
2019-04-21T02:13:17.616Z,12.45
2019-04-21T02:15:26.608Z,12.38
2019-04-21T02:16:23.877Z,12.44
2019-04-21T02:17:23.333Z,12.36
2019-04-21T02:18:25.963Z,12.44
2019-04-21T02:19:16.598Z,12.36
2019-04-21T02:20:16.594Z,12.33
2019-04-21T02:21:19.820Z,12.28
2019-04-21T02:22:27.386Z,12.29
2019-04-21T02:24:31.597Z,12.18
2019-04-21T02:25:25.854Z,12.18
2019-04-21T02:26:23.013Z,12.16
2019-04-21T02:27:26.484Z,12.16
2019-04-21T02:28:32.213Z,12.19
2019-04-21T02:29:26.911Z,12.22
2019-04-21T02:30:36.884Z,12.07
2019-04-21T02:31:54.249Z,12.10
2019-04-21T02:32:37.564Z,12.04
2019-04-21T02:33:36.123Z,12.10
2019-04-21T02:34:52.861Z,12.15
2019-04-21T02:36:40.254Z,12.10
2019-04-21T02:37:54.890Z,12.08
2019-04-21T02:40:44.036Z,12.20
2019-04-21T02:42:38.003Z,12.11
2019-04-21T02:44:37.451Z,12.18
2019-04-21T02:45:37.943Z,12.05
2019-04-21T02:47:48.608Z,11.98
2019-04-21T02:48:38.855Z,12.00
2019-04-21T02:51:33.746Z,12.00
2019-04-21T02:52:37.413Z,11.95
2019-04-21T02:53:50.250Z,11.91
2019-04-21T02:54:47.733Z,11.89
2019-04-21T02:55:30.513Z,11.97
2019-04-21T02:57:35.620Z,11.86
2019-04-21T02:58:41.618Z,11.88
2019-04-21T02:59:37.692Z,11.85
2019-04-21T03:00:45.112Z,11.95
2019-04-21T03:02:42.245Z,11.91
2019-04-21T03:04:38.415Z,11.78
2019-04-21T03:05:39.695Z,11.85
2019-04-21T03:06:39.370Z,11.88
2019-04-21T03:07:46.508Z,11.76
2019-04-21T03:09:45.996Z,11.66
2019-04-21T03:11:24.169Z,11.63
2019-04-21T03:12:28.984Z,11.68
2019-04-21T03:15:39.545Z,11.67
2019-04-21T03:16:31.550Z,11.68
2019-04-21T03:18:43.610Z,11.64
2019-04-21T03:21:38.893Z,11.60
2019-04-21T03:25:20.424Z,11.57
2019-04-21T03:25:46.936Z,11.53
2019-04-21T03:26:40.364Z,11.52
2019-04-21T03:28:39.758Z,11.43
2019-04-21T03:29:36.698Z,11.52
2019-04-21T03:35:25.690Z,11.39
2019-04-21T03:36:13.110Z,11.39
2019-04-21T03:36:49.151Z,11.34
2019-04-21T03:38:36.935Z,11.27
2019-04-21T03:39:37.310Z,11.42
2019-04-21T03:41:40.331Z,11.34
2019-04-21T03:43:40.133Z,11.28
2019-04-21T03:44:37.401Z,11.31
2019-04-21T03:45:40.525Z,11.27
2019-04-21T03:48:35.577Z,11.27
2019-04-21T03:49:40.743Z,11.26
2019-04-21T03:50:33.139Z,11.27
2019-04-21T03:51:40.209Z,11.34
2019-04-21T03:52:41.596Z,11.30
2019-04-21T03:53:31.343Z,11.30
2019-04-21T03:54:49.229Z,11.28
2019-04-21T03:56:53.326Z,11.20
2019-04-21T03:58:00.222Z,11.16
2019-04-21T03:58:46.420Z,11.23
2019-04-21T03:59:38.147Z,11.24
2019-04-21T04:00:50.261Z,11.26
2019-04-21T04:01:33.718Z,11.24
2019-04-21T04:02:55.158Z,11.26
2019-04-21T04:04:35.522Z,11.21
2019-04-21T04:05:49.317Z,11.23
2019-04-21T04:06:38.803Z,11.13
2019-04-21T04:07:43.782Z,11.18
2019-04-21T04:09:52.515Z,11.13
2019-04-21T04:10:34.391Z,11.15
2019-04-21T04:11:38.146Z,11.12
2019-04-21T04:12:34.400Z,11.15
2019-04-21T04:13:53.758Z,11.15
2019-04-21T04:14:40.001Z,11.15
2019-04-21T04:15:38.589Z,11.18
2019-04-21T04:16:49.753Z,11.23
2019-04-21T04:17:46.870Z,11.20
2019-04-21T04:18:48.847Z,11.05
2019-04-21T04:20:34.847Z,11.21
2019-04-21T04:21:37.536Z,11.12
2019-04-21T04:22:37.913Z,11.06
2019-04-21T04:23:45.400Z,11.16
2019-04-21T04:24:44.776Z,11.09
2019-04-21T04:25:40.647Z,11.05
2019-04-21T04:27:53.769Z,11.06
2019-04-21T04:29:31.841Z,11.05
2019-04-21T04:30:37.918Z,11.06
2019-04-21T04:31:45.617Z,11.02
2019-04-21T04:32:34.807Z,11.08
2019-04-21T04:33:48.884Z,11.02
2019-04-21T04:34:41.602Z,11.10
2019-04-21T04:35:46.633Z,11.05
2019-04-21T04:37:39.879Z,10.97
2019-04-21T04:38:41.516Z,11.12
2019-04-21T04:40:38.687Z,11.02
2019-04-21T04:41:44.643Z,11.10
2019-04-21T04:42:39.214Z,11.05
2019-04-21T04:44:00.926Z,11.00
2019-04-21T04:44:46.335Z,11.18
2019-04-21T04:45:38.349Z,11.13
2019-04-21T04:47:01.907Z,11.06
2019-04-21T04:47:33.394Z,11.05
2019-04-21T04:48:38.498Z,11.05
2019-04-21T04:49:43.311Z,11.21
2019-04-21T04:50:45.396Z,11.12
2019-04-21T04:55:41.043Z,11.16
2019-04-21T04:56:40.408Z,11.09
2019-04-21T04:57:48.505Z,11.12
2019-04-21T05:01:40.655Z,11.60
2019-04-21T05:02:48.840Z,11.79
2019-04-21T05:04:46.016Z,11.94
2019-04-21T05:05:44.505Z,12.08
2019-04-21T05:07:44.661Z,11.91
2019-04-21T05:08:57.963Z,11.89
2019-04-21T05:09:41.356Z,11.78
2019-04-21T05:10:47.604Z,11.76
2019-04-21T05:12:53.317Z,11.67
2019-04-21T05:13:37.452Z,11.56
2019-04-21T05:14:39.374Z,11.42
2019-04-21T05:15:44.474Z,11.45
2019-04-21T05:18:46.594Z,11.38
2019-04-21T05:19:34.718Z,11.41
2019-04-21T05:20:29.640Z,11.38
2019-04-21T05:22:30.633Z,11.46
2019-04-21T05:23:32.645Z,11.43
2019-04-21T05:24:25.640Z,11.46
2019-04-21T05:25:23.328Z,11.42
2019-04-21T05:26:23.350Z,11.42
2019-04-21T05:27:23.429Z,11.41
2019-04-21T05:28:21.860Z,11.57
2019-04-21T05:29:22.723Z,11.64
2019-04-21T05:31:32.780Z,11.64
2019-04-21T05:32:38.281Z,11.67
2019-04-21T05:33:34.431Z,11.71
2019-04-21T05:34:42.980Z,11.66
2019-04-21T05:35:30.742Z,11.75
2019-04-21T05:36:31.265Z,11.76
2019-04-21T05:37:28.608Z,11.76
2019-04-21T05:38:27.278Z,11.84
2019-04-21T05:39:27.438Z,11.88
2019-04-21T05:40:22.203Z,11.85
2019-04-21T05:41:24.495Z,11.91
2019-04-21T05:42:24.989Z,11.81
2019-04-21T05:43:30.877Z,11.89
2019-04-21T05:44:35.547Z,11.89
2019-04-21T05:46:32.089Z,11.91
2019-04-21T05:47:35.471Z,11.94
2019-04-21T05:48:30.624Z,11.94
2019-04-21T05:49:26.382Z,12.04
2019-04-21T05:50:29.329Z,12.03
2019-04-21T05:51:25.903Z,12.01
2019-04-21T05:52:22.830Z,12.13
2019-04-21T05:53:42.456Z,12.15
2019-04-21T05:54:39.589Z,12.19
2019-04-21T05:56:30.620Z,12.18
2019-04-21T05:57:29.087Z,12.18
2019-04-21T05:58:34.707Z,12.26
2019-04-21T05:59:26.514Z,12.19
2019-04-21T06:01:34.089Z,12.34
2019-04-21T06:02:30.815Z,12.33
2019-04-21T06:03:39.729Z,12.45
2019-04-21T06:04:49.943Z,12.44
2019-04-21T06:05:38.963Z,12.37
2019-04-21T06:06:33.625Z,12.38
2019-04-21T06:07:29.009Z,12.52
2019-04-21T06:08:32.877Z,12.55
2019-04-21T06:09:32.435Z,12.56
2019-04-21T06:10:36.196Z,12.53
2019-04-21T06:11:30.852Z,12.61
2019-04-21T06:12:35.908Z,12.65
2019-04-21T06:13:34.791Z,12.71
2019-04-21T06:14:30.508Z,12.77
2019-04-21T06:15:34.272Z,12.83
2019-04-21T06:16:36.433Z,12.78
2019-04-21T06:18:44.826Z,12.83
2019-04-21T06:19:38.294Z,12.95
2019-04-21T06:20:34.191Z,13.02
2019-04-21T06:21:33.155Z,13.03
2019-04-21T06:22:28.962Z,13.17
2019-04-21T06:23:30.097Z,13.36
2019-04-21T06:24:33.587Z,13.90
2019-04-21T06:25:48.587Z,14.34
2019-04-21T06:27:33.564Z,15.10
2019-04-21T06:28:35.948Z,15.27
2019-04-21T06:29:28.562Z,15.75
2019-04-21T06:30:33.316Z,16.04
2019-04-21T06:32:05.555Z,16.45
2019-04-21T06:33:36.416Z,16.54
2019-04-21T06:34:45.599Z,16.85
2019-04-21T06:35:41.499Z,17.02
2019-04-21T06:36:41.411Z,17.22
2019-04-21T06:37:44.534Z,17.38
2019-04-21T06:38:49.477Z,17.46
2019-04-21T06:39:30.472Z,17.88
2019-04-21T06:40:40.592Z,17.95
2019-04-21T06:42:34.301Z,18.19
2019-04-21T06:43:33.460Z,18.17
2019-04-21T06:44:33.081Z,18.27
2019-04-21T06:45:37.889Z,18.49
2019-04-21T06:46:35.447Z,18.53
2019-04-21T06:47:38.185Z,18.56
2019-04-21T06:48:35.085Z,18.61
2019-04-21T06:49:30.039Z,18.91
2019-04-21T06:50:37.567Z,19.16
2019-04-21T06:51:43.334Z,19.37
2019-04-21T06:53:42.472Z,19.42
2019-04-21T06:54:35.531Z,19.31
2019-04-21T06:55:35.105Z,19.37
2019-04-21T06:56:38.034Z,19.55
2019-04-21T06:57:34.881Z,19.75
2019-04-21T06:58:32.089Z,20.01
2019-04-21T06:59:30.081Z,20.18
2019-04-21T07:00:31.524Z,20.16
2019-04-21T07:03:34.690Z,20.49
2019-04-21T07:04:33.224Z,20.25
2019-04-21T07:05:38.859Z,20.12
2019-04-21T07:06:38.646Z,20.16
2019-04-21T07:07:28.138Z,20.08
2019-04-21T07:08:34.672Z,20.20
2019-04-21T07:09:31.883Z,20.38
2019-04-21T07:10:35.050Z,20.26
2019-04-21T07:11:33.673Z,20.16
2019-04-21T07:12:28.958Z,19.86
2019-04-21T07:13:34.782Z,19.86
2019-04-21T07:16:34.204Z,20.48
2019-04-21T07:17:45.026Z,20.35
2019-04-21T07:18:34.718Z,20.41
2019-04-21T07:19:34.710Z,20.54
2019-04-21T07:20:28.253Z,20.72
2019-04-21T07:21:35.514Z,20.75
2019-04-21T07:22:37.551Z,20.64
2019-04-21T07:23:32.362Z,20.72
2019-04-21T07:24:31.527Z,20.56
2019-04-21T07:25:32.665Z,20.72
2019-04-21T07:26:32.216Z,20.71
2019-04-21T07:27:35.104Z,21.09
2019-04-21T07:28:31.736Z,21.06
2019-04-21T07:29:34.614Z,21.19
2019-04-21T07:31:41.618Z,21.18
2019-04-21T07:32:34.417Z,21.16
2019-04-21T07:34:33.720Z,21.37
2019-04-21T07:35:31.935Z,21.41
2019-04-21T07:36:37.913Z,21.74
2019-04-21T07:37:31.720Z,21.94
2019-04-21T07:38:27.506Z,22.02
2019-04-21T07:39:28.126Z,21.82
2019-04-21T07:40:30.490Z,21.89
2019-04-21T07:41:24.916Z,21.96
2019-04-21T07:42:28.130Z,22.08
2019-04-21T07:43:23.376Z,21.94
2019-04-21T07:44:30.267Z,22.09
2019-04-21T07:45:28.172Z,22.27
2019-04-21T07:46:27.433Z,22.24
2019-04-21T07:47:28.481Z,22.16
2019-04-21T07:48:36.091Z,22.26
2019-04-21T07:49:37.144Z,22.45
2019-04-21T07:50:31.822Z,22.27
2019-04-21T07:51:33.982Z,22.66
2019-04-21T07:52:35.129Z,22.76
2019-04-21T07:53:36.510Z,22.89
2019-04-21T07:56:20.378Z,22.63
2019-04-21T07:57:35.216Z,22.96
2019-04-21T07:58:40.404Z,22.94
2019-04-21T07:59:56.192Z,23.19
2019-04-21T08:00:38.961Z,23.29
2019-04-21T08:01:30.770Z,23.44
2019-04-21T08:03:34.952Z,23.24
2019-04-21T08:05:31.379Z,23.18
2019-04-21T08:06:36.617Z,23.25
2019-04-21T08:07:42.116Z,23.40
2019-04-21T08:08:29.798Z,23.60
2019-04-21T08:09:31.912Z,23.82
2019-04-21T08:10:26.313Z,23.97
2019-04-21T08:11:25.681Z,24.00
2019-04-21T08:12:27.598Z,24.07
2019-04-21T08:14:03.511Z,24.24
2019-04-21T08:14:43.971Z,24.30
2019-04-21T08:15:38.570Z,24.21
2019-04-21T08:16:30.576Z,24.17
2019-04-21T08:17:30.745Z,24.18
2019-04-21T08:18:35.294Z,24.24
2019-04-21T08:19:31.119Z,24.14
2019-04-21T08:20:29.141Z,24.19
2019-04-21T08:21:35.442Z,24.12
2019-04-21T08:22:36.743Z,24.26
2019-04-21T08:23:31.822Z,24.12
2019-04-21T08:24:40.640Z,24.19
2019-04-21T08:25:34.923Z,24.58
2019-04-21T08:26:36.898Z,24.94
2019-04-21T08:27:38.504Z,24.80
2019-04-21T08:28:32.061Z,24.61
2019-04-21T08:29:34.982Z,24.87
2019-04-21T08:30:43.109Z,24.85
2019-04-21T08:31:38.408Z,24.89
2019-04-21T08:32:46.560Z,24.58
2019-04-21T08:33:38.716Z,24.51
2019-04-21T08:34:37.431Z,24.46
2019-04-21T08:35:52.962Z,24.70
2019-04-21T08:36:44.949Z,24.21
2019-04-21T08:37:31.406Z,24.52
2019-04-21T08:38:34.408Z,24.97
2019-04-21T08:39:39.503Z,25.20
2019-04-21T08:40:49.167Z,25.09
2019-04-21T08:41:36.251Z,25.14
2019-04-21T08:42:30.462Z,25.22
2019-04-21T08:43:43.052Z,25.30
2019-04-21T08:44:43.206Z,25.49
2019-04-21T08:45:39.676Z,25.66
2019-04-21T08:46:31.810Z,25.88
2019-04-21T08:47:33.967Z,26.06
2019-04-21T08:48:37.967Z,25.86
2019-04-21T08:49:36.363Z,25.94
2019-04-21T08:50:30.871Z,26.30
2019-04-21T08:53:34.244Z,25.85
2019-04-21T08:54:32.269Z,25.74
2019-04-21T08:55:32.031Z,26.03
2019-04-21T08:56:36.945Z,25.47
2019-04-21T08:57:46.448Z,25.51
2019-04-21T08:58:34.529Z,25.59
2019-04-21T08:59:36.374Z,25.71
2019-04-21T09:00:33.744Z,26.11
2019-04-21T09:01:36.914Z,26.20
2019-04-21T09:02:35.043Z,26.22
2019-04-21T09:03:35.559Z,26.09
2019-04-21T09:05:30.730Z,26.32
2019-04-21T09:06:52.566Z,26.64
2019-04-21T09:08:33.312Z,26.63
2019-04-21T09:09:38.190Z,26.69
2019-04-21T09:10:34.909Z,26.32
2019-04-21T09:11:28.741Z,26.71
2019-04-21T09:12:34.781Z,26.94
2019-04-21T09:13:34.481Z,27.19
2019-04-21T09:14:30.540Z,27.23
2019-04-21T09:15:39.639Z,27.21
2019-04-21T09:16:31.222Z,27.26
2019-04-21T09:17:28.418Z,27.36
2019-04-21T09:18:26.993Z,27.15
2019-04-21T09:20:40.186Z,27.15
2019-04-21T09:21:35.996Z,27.37
2019-04-21T09:22:29.845Z,27.69
2019-04-21T09:23:36.576Z,27.68
2019-04-21T09:24:37.359Z,27.76
2019-04-21T09:25:52.812Z,27.79
2019-04-21T09:26:29.234Z,27.69
2019-04-21T09:27:30.508Z,27.93
2019-04-21T09:28:25.707Z,27.68
2019-04-21T09:29:20.566Z,27.69
2019-04-21T09:30:15.240Z,27.57
2019-04-21T09:31:17.082Z,27.53
2019-04-21T09:32:20.353Z,27.64
2019-04-21T09:33:16.031Z,27.89
2019-04-21T09:34:24.890Z,27.81
2019-04-21T09:37:26.561Z,28.26
2019-04-21T09:38:26.702Z,28.48
2019-04-21T09:39:20.330Z,28.23
2019-04-21T09:42:17.759Z,28.39
2019-04-21T09:43:23.836Z,28.27
2019-04-21T09:44:23.894Z,28.28
2019-04-21T09:45:15.796Z,28.33
2019-04-21T09:47:05.159Z,28.70
2019-04-21T09:48:09.925Z,29.06
2019-04-21T09:49:06.480Z,28.95
2019-04-21T09:52:52.829Z,29.08
2019-04-21T09:54:55.144Z,29.33
2019-04-21T09:55:51.276Z,29.15
2019-04-21T09:56:53.775Z,29.02
2019-04-21T09:58:50.365Z,28.91
2019-04-21T10:00:51.057Z,28.97
2019-04-21T10:01:49.042Z,28.82
2019-04-21T10:02:49.798Z,28.80
2019-04-21T10:03:43.413Z,28.95
2019-04-21T10:04:39.946Z,29.32
2019-04-21T10:05:38.772Z,29.11
2019-04-21T10:06:39.543Z,28.45
2019-04-21T10:07:42.103Z,27.96
2019-04-21T10:08:38.888Z,28.09
2019-04-21T10:09:39.702Z,28.11
2019-04-21T10:10:39.995Z,28.14
2019-04-21T10:11:39.008Z,28.41
2019-04-21T10:12:39.045Z,28.16
2019-04-21T10:13:39.805Z,28.33
2019-04-21T10:14:39.122Z,28.43
2019-04-21T10:15:39.705Z,28.57
2019-04-21T10:16:40.506Z,28.88
2019-04-21T10:17:39.525Z,29.24
2019-04-21T10:18:40.296Z,29.20
2019-04-21T10:19:39.743Z,29.45
2019-04-21T10:20:40.571Z,29.35
2019-04-21T10:21:40.289Z,29.28
2019-04-21T10:22:39.445Z,29.38
2019-04-21T10:23:39.499Z,29.36
2019-04-21T10:24:40.515Z,29.35
2019-04-21T10:25:40.575Z,29.87
2019-04-21T10:26:40.885Z,30.06
2019-04-21T10:27:41.085Z,29.55
2019-04-21T10:28:39.668Z,29.17
2019-04-21T10:29:42.964Z,29.26
2019-04-21T10:30:40.745Z,29.13
2019-04-21T10:31:40.766Z,29.35
2019-04-21T10:32:40.634Z,29.33
2019-04-21T10:33:40.057Z,29.60
2019-04-21T10:34:41.127Z,29.88
2019-04-21T10:35:41.218Z,29.01
2019-04-21T10:36:40.770Z,28.82
2019-04-21T10:37:53.895Z,29.13
2019-04-21T10:38:44.679Z,29.45
2019-04-21T10:39:40.099Z,29.40
2019-04-21T10:40:41.257Z,29.40
2019-04-21T10:41:41.421Z,29.43
2019-04-21T10:42:40.490Z,29.61
2019-04-21T10:43:40.967Z,29.87
2019-04-21T10:44:41.002Z,29.85
2019-04-21T10:45:41.063Z,29.98
2019-04-21T10:46:40.636Z,29.81
2019-04-21T10:47:41.033Z,29.66
2019-04-21T10:48:41.090Z,29.97
2019-04-21T10:49:40.487Z,29.85
2019-04-21T10:50:41.163Z,30.00
2019-04-21T10:51:41.107Z,30.21
2019-04-21T10:52:40.693Z,30.49
2019-04-21T10:53:40.969Z,30.49
2019-04-21T10:55:05.596Z,30.35
2019-04-21T10:55:57.822Z,30.00
2019-04-21T10:56:43.824Z,29.95
2019-04-21T10:57:44.376Z,29.82
2019-04-21T10:58:40.842Z,28.27
2019-04-21T10:59:47.074Z,27.84
2019-04-21T11:00:42.119Z,28.05
2019-04-21T11:01:41.190Z,28.36
2019-04-21T11:02:41.179Z,28.70
2019-04-21T11:03:41.044Z,29.01
2019-04-21T11:04:42.287Z,29.02
2019-04-21T11:05:41.122Z,29.35
2019-04-21T11:06:42.257Z,29.76
2019-04-21T11:07:59.270Z,30.03
2019-04-21T11:08:44.991Z,29.17
2019-04-21T11:09:42.320Z,29.52
2019-04-21T11:10:41.439Z,30.16
2019-04-21T11:11:44.557Z,30.54
2019-04-21T11:12:42.806Z,30.78
2019-04-21T11:13:41.425Z,30.85
2019-04-21T11:14:41.464Z,30.97
2019-04-21T11:15:41.506Z,30.70
2019-04-21T11:16:43.020Z,30.57
2019-04-21T11:17:43.892Z,30.70
2019-04-21T11:18:42.138Z,30.54
2019-04-21T11:20:42.779Z,30.26
2019-04-21T11:21:42.903Z,30.48
2019-04-21T11:22:41.778Z,30.28
2019-04-21T11:23:41.815Z,30.29
2019-04-21T11:24:42.990Z,30.49
2019-04-21T11:25:42.244Z,30.60
2019-04-21T11:26:42.241Z,30.94
2019-04-21T11:27:42.920Z,30.57
2019-04-21T11:28:43.098Z,30.25
2019-04-21T11:29:43.218Z,30.14
2019-04-21T11:30:42.469Z,29.63
2019-04-21T11:31:43.144Z,29.75
2019-04-21T11:32:44.995Z,29.63
2019-04-21T11:33:43.044Z,29.61
2019-04-21T11:34:43.141Z,29.85
2019-04-21T11:35:43.459Z,29.57
2019-04-21T11:36:42.327Z,29.95
2019-04-21T11:37:42.365Z,30.24
2019-04-21T11:39:00.834Z,30.45
2019-04-21T11:39:51.959Z,30.47
2019-04-21T11:40:43.373Z,30.71
2019-04-21T11:41:43.599Z,30.89
2019-04-21T11:42:43.862Z,30.56
2019-04-21T11:43:43.224Z,30.24
2019-04-21T11:44:42.647Z,29.70
2019-04-21T11:45:42.682Z,29.98
2019-04-21T11:46:42.722Z,29.66
2019-04-21T11:47:42.786Z,29.40
2019-04-21T11:48:44.017Z,29.47
2019-04-21T11:49:43.142Z,29.98
2019-04-21T11:50:43.326Z,30.09
2019-04-21T11:51:42.947Z,30.37
2019-04-21T11:52:43.221Z,30.67
2019-04-21T11:53:43.187Z,30.77
2019-04-21T11:54:43.036Z,31.06
2019-04-21T11:55:46.695Z,31.13
2019-04-21T11:56:43.332Z,30.77
2019-04-21T11:57:46.954Z,30.28
2019-04-21T11:58:43.905Z,30.21
2019-04-21T11:59:43.866Z,30.03
2019-04-21T12:00:43.276Z,30.26
2019-04-21T12:01:43.577Z,30.18
2019-04-21T12:02:43.716Z,30.47
2019-04-21T12:03:43.394Z,30.66
2019-04-21T12:04:43.584Z,30.93
2019-04-21T12:05:43.579Z,31.10
2019-04-21T12:06:47.121Z,31.28
2019-04-21T12:07:47.189Z,31.49
2019-04-21T12:08:47.409Z,31.21
2019-04-21T12:09:43.812Z,31.28
2019-04-21T12:10:43.668Z,31.50
2019-04-21T12:11:43.707Z,31.60
2019-04-21T12:12:43.746Z,30.88
2019-04-21T12:13:43.786Z,30.49
2019-04-21T12:14:43.959Z,30.31
2019-04-21T12:15:45.079Z,29.95
2019-04-21T12:16:43.904Z,29.79
2019-04-21T12:17:44.065Z,29.89
2019-04-21T12:18:45.107Z,29.95
2019-04-21T12:19:44.752Z,29.97
2019-04-21T12:20:45.145Z,30.16
2019-04-21T12:21:53.506Z,30.47
2019-04-21T12:22:45.322Z,30.77
2019-04-21T12:23:44.756Z,31.03
2019-04-21T12:24:45.013Z,30.78
2019-04-21T12:25:45.311Z,30.91
2019-04-21T12:26:44.776Z,30.94
2019-04-21T12:27:45.603Z,30.85
2019-04-21T12:28:44.373Z,31.04
2019-04-21T12:29:44.741Z,31.22
2019-04-21T12:30:45.282Z,31.18
2019-04-21T12:31:45.488Z,30.99
2019-04-21T12:32:44.529Z,30.96
2019-04-21T12:33:45.775Z,30.14
2019-04-21T12:34:47.344Z,30.04
2019-04-21T12:35:45.953Z,29.95
2019-04-21T12:36:44.685Z,29.32
2019-04-21T12:37:44.836Z,29.33
2019-04-21T12:38:51.928Z,29.50
2019-04-21T12:39:45.068Z,29.95
2019-04-21T12:40:44.840Z,30.24
2019-04-21T12:41:44.876Z,30.35
2019-04-21T12:42:45.498Z,30.67
2019-04-21T12:43:44.951Z,30.39
2019-04-21T12:44:45.426Z,30.06
2019-04-21T12:45:46.070Z,30.10
2019-04-21T12:46:45.579Z,30.29
2019-04-21T12:47:47.386Z,30.19
2019-04-21T12:48:46.163Z,30.47
2019-04-21T12:49:45.573Z,30.62
2019-04-21T12:50:45.818Z,30.66
2019-04-21T12:51:46.121Z,31.10
2019-04-21T12:52:45.387Z,30.56
2019-04-21T12:53:45.638Z,30.18
2019-04-21T12:54:45.873Z,30.11
2019-04-21T12:55:46.672Z,29.79
2019-04-21T12:56:45.679Z,29.79
2019-04-21T12:57:45.544Z,29.63
2019-04-21T12:58:46.987Z,29.76
2019-04-21T12:59:46.692Z,29.85
2019-04-21T13:00:47.051Z,29.65
2019-04-21T13:01:45.632Z,29.70
2019-04-21T13:02:45.668Z,29.87
2019-04-21T13:04:43.912Z,29.52
2019-04-21T13:05:43.486Z,29.92
2019-04-21T13:06:43.620Z,29.89
2019-04-21T13:07:43.740Z,30.07
2019-04-21T13:08:51.841Z,30.48
2019-04-21T13:09:44.346Z,30.81
2019-04-21T13:10:44.324Z,30.37
2019-04-21T13:11:43.574Z,29.66
2019-04-21T13:12:43.904Z,29.84
2019-04-21T13:13:43.932Z,29.70
2019-04-21T13:14:44.050Z,30.00
2019-04-21T13:15:43.716Z,29.50
2019-04-21T13:16:43.760Z,29.11
2019-04-21T13:17:45.745Z,28.31
2019-04-21T13:18:44.969Z,27.84
2019-04-21T13:19:45.246Z,28.24
2019-04-21T13:20:44.341Z,28.26
2019-04-21T13:21:45.760Z,28.26
2019-04-21T13:24:09.098Z,28.88
2019-04-21T13:25:09.727Z,29.17
2019-04-21T13:26:09.749Z,29.26
2019-04-21T13:27:10.641Z,29.28
2019-04-21T13:28:10.416Z,29.36
2019-04-21T13:29:10.241Z,29.15
2019-04-21T13:30:10.449Z,29.11
2019-04-21T13:31:09.343Z,29.26
2019-04-21T13:32:10.729Z,29.23
2019-04-21T13:33:09.421Z,29.17
2019-04-21T13:34:10.471Z,29.26
2019-04-21T13:35:10.728Z,29.30
2019-04-21T13:36:09.740Z,29.15
2019-04-21T13:37:09.778Z,28.90
2019-04-21T13:38:19.886Z,28.94
2019-04-21T13:39:38.234Z,28.95
2019-04-21T13:40:30.802Z,29.13
2019-04-21T13:41:21.468Z,28.70
2019-04-21T13:42:17.457Z,28.61
2019-04-21T13:43:10.727Z,28.31
2019-04-21T13:44:10.998Z,27.93
2019-04-21T13:45:10.197Z,27.38
2019-04-21T13:46:10.091Z,27.24
2019-04-21T13:48:08.396Z,27.11
2019-04-21T13:49:07.546Z,26.81
2019-04-21T13:50:08.836Z,26.81
2019-04-21T13:51:09.016Z,26.72
2019-04-21T13:52:08.869Z,26.60
2019-04-21T13:53:08.916Z,26.42
2019-04-21T13:54:07.720Z,26.30
2019-04-21T13:55:07.832Z,26.07
2019-04-21T13:56:08.906Z,25.99
2019-04-21T13:57:08.370Z,25.99
2019-04-21T13:58:08.531Z,26.01
2019-04-21T13:59:08.508Z,25.99
2019-04-21T14:00:08.966Z,26.03
2019-04-21T14:01:07.962Z,26.16
2019-04-21T14:02:08.967Z,26.01
2019-04-21T14:03:08.025Z,26.04
2019-04-21T14:04:09.400Z,26.15
2019-04-21T14:05:10.465Z,26.01
2019-04-21T14:06:08.546Z,25.97
2019-04-21T14:07:08.291Z,25.99
2019-04-21T14:08:52.386Z,25.89
2019-04-21T14:09:57.594Z,25.88
2019-04-21T14:10:51.494Z,25.88
2019-04-21T14:11:53.512Z,25.79
2019-04-21T14:12:50.893Z,25.75
2019-04-21T14:13:52.005Z,25.69
2019-04-21T14:14:52.381Z,25.34
2019-04-21T14:15:51.802Z,25.37
2019-04-21T14:16:52.077Z,25.47
2019-04-21T14:17:51.039Z,25.30
2019-04-21T14:18:51.789Z,25.41
2019-04-21T14:19:51.105Z,25.48
2019-04-21T14:20:51.326Z,25.47
2019-04-21T14:33:02.452Z,25.64
2019-04-21T14:34:02.293Z,25.78
2019-04-21T14:35:03.066Z,25.82
2019-04-21T14:36:02.926Z,25.82
2019-04-21T14:37:02.614Z,25.69
2019-04-21T14:38:02.724Z,25.66
2019-04-21T14:39:02.833Z,25.49